createdAt,value
2018-11-05T00:00:45.672Z,13.17
2018-11-05T00:03:14.497Z,14.23
2018-11-05T00:05:43.757Z,12.67
2018-11-05T00:08:12.416Z,14.00
2018-11-05T00:10:41.017Z,14.07
2018-11-05T00:13:09.535Z,13.33
2018-11-05T00:15:38.704Z,13.43
2018-11-05T00:18:07.632Z,14.27
2018-11-05T00:20:36.221Z,14.00
2018-11-05T00:23:05.040Z,14.03
2018-11-05T00:25:33.590Z,13.83
2018-11-05T00:28:02.604Z,14.70
2018-11-05T00:30:31.146Z,14.03
2018-11-05T00:32:59.691Z,15.90
2018-11-05T00:35:29.297Z,15.00
2018-11-05T00:37:57.823Z,15.10
2018-11-05T00:40:26.451Z,15.40
2018-11-05T00:42:55.020Z,15.73
2018-11-05T00:45:23.571Z,16.73
2018-11-05T00:47:52.312Z,15.60
2018-11-05T00:50:21.148Z,17.87
2018-11-05T00:52:49.784Z,17.23
2018-11-05T00:55:18.631Z,17.27
2018-11-05T00:57:47.456Z,19.03
2018-11-05T01:00:17.078Z,23.90
2018-11-05T01:02:45.755Z,22.40
2018-11-05T01:05:15.829Z,23.07
2018-11-05T01:07:45.493Z,21.67
2018-11-05T01:10:15.490Z,20.80
2018-11-05T01:12:44.526Z,18.63
2018-11-05T01:15:14.186Z,19.60
2018-11-05T01:17:42.809Z,18.70
2018-11-05T01:20:12.561Z,20.27
2018-11-05T01:22:41.201Z,20.13
2018-11-05T01:25:09.790Z,19.30
2018-11-05T01:27:38.296Z,18.40
2018-11-05T01:30:08.870Z,17.47
2018-11-05T01:32:37.751Z,17.23
2018-11-05T01:35:07.527Z,16.80
2018-11-05T01:37:36.979Z,16.50
2018-11-05T01:40:08.009Z,16.37
2018-11-05T01:42:36.888Z,17.07
2018-11-05T01:45:06.872Z,18.73
2018-11-05T01:47:35.368Z,18.20
2018-11-05T01:50:03.966Z,18.60
2018-11-05T01:52:33.388Z,22.17
2018-11-05T01:55:02.666Z,20.70
2018-11-05T01:57:31.787Z,19.43
2018-11-05T02:00:01.037Z,19.97
2018-11-05T02:02:29.821Z,19.40
2018-11-05T02:04:58.380Z,21.40
2018-11-05T02:07:26.860Z,23.23
2018-11-05T02:09:55.464Z,22.50
2018-11-05T02:12:23.976Z,21.80
2018-11-05T02:14:53.381Z,21.83
2018-11-05T02:17:21.865Z,20.47
2018-11-05T02:19:50.871Z,21.17
2018-11-05T02:22:20.113Z,20.90
2018-11-05T02:24:49.612Z,21.43
2018-11-05T02:27:18.130Z,21.23
2018-11-05T02:29:46.694Z,19.63
2018-11-05T02:32:15.188Z,21.23
2018-11-05T02:34:43.664Z,21.17
2018-11-05T02:37:12.281Z,20.80
2018-11-05T02:39:40.926Z,22.73
2018-11-05T02:42:09.486Z,21.70
2018-11-05T02:44:38.073Z,21.60
2018-11-05T02:47:06.645Z,20.57
2018-11-05T02:49:35.389Z,20.67
2018-11-05T02:52:03.980Z,21.07
2018-11-05T02:54:32.458Z,21.63
2018-11-05T02:57:01.009Z,22.00
2018-11-05T02:59:29.518Z,21.47
2018-11-05T03:01:58.111Z,21.87
2018-11-05T03:04:26.596Z,23.87
2018-11-05T03:06:55.198Z,21.93
2018-11-05T03:09:23.656Z,23.83
2018-11-05T03:11:52.376Z,22.40
2018-11-05T03:14:20.911Z,21.53
2018-11-05T03:16:49.589Z,21.50
2018-11-05T03:19:18.091Z,23.70
2018-11-05T03:21:46.600Z,21.83
2018-11-05T03:24:15.121Z,22.00
2018-11-05T03:26:44.408Z,20.20
2018-11-05T03:29:13.217Z,20.67
2018-11-05T03:31:42.632Z,22.17
2018-11-05T03:34:11.340Z,20.80
2018-11-05T03:36:41.200Z,20.90
2018-11-05T03:39:11.432Z,21.33
2018-11-05T03:41:40.371Z,22.00
2018-11-05T03:44:09.747Z,20.73
2018-11-05T03:46:38.574Z,21.60
2018-11-05T03:49:08.175Z,20.97
2018-11-05T03:51:36.736Z,21.80
2018-11-05T03:54:06.512Z,20.93
2018-11-05T03:56:35.274Z,21.97
2018-11-05T03:59:03.727Z,22.47
2018-11-05T04:01:32.369Z,21.27
2018-11-05T04:04:00.837Z,21.43
2018-11-05T04:06:29.939Z,21.07
2018-11-05T04:08:58.656Z,19.87
2018-11-05T04:11:27.157Z,20.60
2018-11-05T04:13:55.720Z,19.30
2018-11-05T04:16:24.408Z,19.77
2018-11-05T04:18:53.153Z,18.57
2018-11-05T04:21:21.890Z,19.47
2018-11-05T04:23:50.459Z,18.57
2018-11-05T04:26:18.997Z,19.40
2018-11-05T04:28:47.576Z,17.80
2018-11-05T04:31:16.220Z,18.47
2018-11-05T04:33:45.487Z,18.33
2018-11-05T04:36:14.200Z,19.97
2018-11-05T04:38:43.452Z,17.23
2018-11-05T04:41:11.980Z,18.23
2018-11-05T04:43:40.628Z,18.73
2018-11-05T04:46:09.416Z,19.10
2018-11-05T04:48:38.779Z,19.93
2018-11-05T04:51:07.395Z,18.20
2018-11-05T04:53:35.934Z,17.27
2018-11-05T04:56:04.844Z,19.17
2018-11-05T04:58:33.300Z,17.90
2018-11-05T05:01:01.808Z,18.73
2018-11-05T05:03:31.249Z,16.90
2018-11-05T05:05:59.658Z,16.10
2018-11-05T05:08:28.619Z,17.70
2018-11-05T05:10:57.814Z,17.27
2018-11-05T05:13:26.349Z,17.53
2018-11-05T05:15:54.988Z,17.00
2018-11-05T05:18:23.537Z,17.93
2018-11-05T05:20:52.799Z,15.50
2018-11-05T05:23:21.554Z,18.00
2018-11-05T05:25:50.801Z,18.27
2018-11-05T05:28:19.301Z,17.53
2018-11-05T05:30:48.392Z,42.47
2018-11-05T05:33:16.968Z,23.63
2018-11-05T05:35:45.535Z,16.57
2018-11-05T05:38:14.170Z,17.27
2018-11-05T05:40:42.836Z,15.10
2018-11-05T05:43:12.222Z,17.63
2018-11-05T05:45:40.736Z,15.23
2018-11-05T05:48:09.387Z,12.50
2018-11-05T05:50:38.002Z,13.17
2018-11-05T05:53:06.777Z,13.53
2018-11-05T05:55:35.316Z,11.70
2018-11-05T05:58:04.130Z,12.00
2018-11-05T06:00:32.700Z,10.70
2018-11-05T06:03:01.465Z,10.30
2018-11-05T06:05:30.012Z,8.93
2018-11-05T06:07:58.600Z,8.70
2018-11-05T06:10:27.295Z,8.27
2018-11-05T06:12:56.372Z,8.13
2018-11-05T06:15:25.460Z,7.53
2018-11-05T06:17:54.147Z,10.27
2018-11-05T06:20:22.736Z,13.87
2018-11-05T06:22:51.284Z,8.43
2018-11-05T06:25:19.915Z,7.60
2018-11-05T06:27:48.420Z,7.63
2018-11-05T06:30:18.645Z,7.67
2018-11-05T06:32:47.892Z,9.23
2018-11-05T06:35:16.530Z,10.47
2018-11-05T06:37:45.013Z,12.07
2018-11-05T06:40:15.372Z,11.23
2018-11-05T06:42:44.496Z,9.23
2018-11-05T06:45:14.684Z,8.17
2018-11-05T06:47:44.108Z,9.93
2018-11-05T06:50:15.059Z,10.37
2018-11-05T06:52:44.239Z,10.30
2018-11-05T06:55:13.337Z,12.23
2018-11-05T06:57:42.808Z,13.07
2018-11-05T07:00:15.856Z,12.40
2018-11-05T07:02:44.720Z,12.53
2018-11-05T07:05:14.046Z,11.67
2018-11-05T07:07:42.599Z,12.33
2018-11-05T07:10:12.845Z,13.70
2018-11-05T07:12:42.190Z,13.30
2018-11-05T07:15:13.511Z,11.93
2018-11-05T07:17:42.768Z,11.20
2018-11-05T07:20:14.936Z,10.13
2018-11-05T07:22:44.461Z,9.77
2018-11-05T07:25:14.428Z,10.83
2018-11-05T07:27:44.303Z,9.63
2018-11-05T07:30:17.036Z,8.97
2018-11-05T07:32:46.403Z,10.00
2018-11-05T07:35:15.835Z,10.07
2018-11-05T07:37:44.907Z,10.00
2018-11-05T07:40:14.800Z,9.07
2018-11-05T07:42:43.355Z,10.57
2018-11-05T07:45:22.060Z,9.80
2018-11-05T07:47:50.566Z,8.40
2018-11-05T07:50:20.383Z,9.47
2018-11-05T07:52:51.221Z,9.17
2018-11-05T07:55:20.031Z,8.50
2018-11-05T07:57:49.516Z,8.93
2018-11-05T08:01:24.980Z,8.57
2018-11-05T08:03:53.575Z,8.70
2018-11-05T08:06:22.480Z,9.30
2018-11-05T08:08:51.197Z,9.07
2018-11-05T08:11:19.996Z,9.57
2018-11-05T08:13:49.145Z,8.60
2018-11-05T08:16:17.758Z,7.83
2018-11-05T08:18:46.533Z,7.47
2018-11-05T08:21:15.271Z,7.60
2018-11-05T08:23:43.981Z,7.83
2018-11-05T08:26:12.831Z,6.97
2018-11-05T08:28:41.619Z,6.80
2018-11-05T08:31:10.694Z,6.57
2018-11-05T08:33:39.796Z,6.70
2018-11-05T08:36:08.517Z,6.60
2018-11-05T08:38:37.238Z,6.27
2018-11-05T08:41:05.906Z,7.37
2018-11-05T08:43:34.500Z,7.47
2018-11-05T08:46:03.050Z,6.90
2018-11-05T08:48:32.351Z,6.13
2018-11-05T08:51:00.981Z,6.20
2018-11-05T08:53:29.713Z,6.33
2018-11-05T08:55:58.429Z,6.07
2018-11-05T08:58:26.912Z,6.40
2018-11-05T09:01:00.723Z,9.60
2018-11-05T09:03:29.528Z,7.17
2018-11-05T09:05:59.019Z,7.27
2018-11-05T09:08:27.504Z,7.40
2018-11-05T09:10:56.815Z,6.40
2018-11-05T09:13:25.464Z,6.50
2018-11-05T09:15:54.746Z,6.03
2018-11-05T09:18:23.770Z,6.33
2018-11-05T09:20:52.279Z,6.03
2018-11-05T09:23:21.477Z,6.33
2018-11-05T09:25:49.993Z,7.37
2018-11-05T09:28:19.028Z,7.43
2018-11-05T09:30:47.644Z,7.10
2018-11-05T09:33:16.427Z,7.63
2018-11-05T09:35:45.005Z,7.03
2018-11-05T09:38:13.559Z,6.83
2018-11-05T09:40:42.085Z,6.67
2018-11-05T09:43:10.877Z,6.37
2018-11-05T09:45:39.522Z,6.93
2018-11-05T09:48:08.162Z,6.87
2018-11-05T09:50:37.156Z,9.07
2018-11-05T09:53:05.972Z,7.70
2018-11-05T09:55:34.537Z,8.07
2018-11-05T09:58:03.335Z,7.57
2018-11-05T10:00:32.018Z,8.10
2018-11-05T10:03:07.491Z,7.53
2018-11-05T10:05:36.036Z,7.17
2018-11-05T10:08:04.630Z,7.07
2018-11-05T10:10:34.129Z,6.87
2018-11-05T10:13:02.670Z,7.10
2018-11-05T10:15:32.128Z,7.10
2018-11-05T10:18:00.829Z,6.70
2018-11-05T10:20:29.835Z,7.03
2018-11-05T10:22:58.348Z,7.00
2018-11-05T10:25:26.892Z,7.10
2018-11-05T10:28:03.727Z,7.27
2018-11-05T10:30:32.905Z,6.90
2018-11-05T10:33:01.687Z,6.87
2018-11-05T10:35:35.529Z,6.40
2018-11-05T10:38:04.198Z,6.70
2018-11-05T10:40:33.473Z,7.63
2018-11-05T10:43:02.027Z,6.93
2018-11-05T10:45:31.469Z,6.93
2018-11-05T10:48:00.853Z,6.57
2018-11-05T10:50:29.651Z,7.00
2018-11-05T10:52:58.004Z,6.97
2018-11-05T10:55:26.561Z,7.90
2018-11-05T10:57:55.146Z,7.67
2018-11-05T11:00:28.984Z,8.07
2018-11-05T11:03:02.777Z,7.77
2018-11-05T11:05:32.204Z,7.53
2018-11-05T11:08:01.805Z,8.73
2018-11-05T11:10:31.070Z,7.17
2018-11-05T11:12:59.861Z,8.13
2018-11-05T11:15:28.543Z,8.10
2018-11-05T11:17:57.852Z,8.07
2018-11-05T11:20:26.584Z,7.70
2018-11-05T11:22:55.769Z,7.63
2018-11-05T11:25:24.334Z,7.77
2018-11-05T11:27:53.040Z,7.00
2018-11-05T11:30:21.459Z,6.93
2018-11-05T11:32:51.602Z,6.67
2018-11-05T11:35:20.688Z,7.27
2018-11-05T11:37:49.285Z,6.73
2018-11-05T11:40:19.223Z,6.93
2018-11-05T11:42:48.673Z,7.17
2018-11-05T11:45:18.451Z,6.57
2018-11-05T11:47:47.931Z,6.57
2018-11-05T11:50:17.413Z,8.63
2018-11-05T11:52:46.374Z,6.80
2018-11-05T11:55:16.640Z,6.63
2018-11-05T11:57:45.447Z,7.13
2018-11-05T12:00:22.148Z,6.87
2018-11-05T12:02:51.263Z,6.90
2018-11-05T12:05:20.536Z,6.20
2018-11-05T12:07:49.636Z,6.77
2018-11-05T12:10:21.261Z,6.27
2018-11-05T12:12:49.991Z,6.43
2018-11-05T12:15:19.408Z,6.43
2018-11-05T12:17:49.336Z,6.80
2018-11-05T12:20:19.288Z,6.73
2018-11-05T12:22:48.512Z,8.03
2018-11-05T12:25:17.663Z,6.93
2018-11-05T12:27:47.451Z,10.43
2018-11-05T12:30:19.325Z,9.17
2018-11-05T12:32:49.222Z,6.60
2018-11-05T12:35:17.947Z,6.53
2018-11-05T12:37:47.629Z,6.20
2018-11-05T12:40:18.290Z,6.50
2018-11-05T12:42:47.845Z,6.23
2018-11-05T12:45:16.361Z,5.57
2018-11-05T12:47:46.050Z,6.47
2018-11-05T12:50:21.146Z,5.60
2018-11-05T12:52:51.012Z,6.13
2018-11-05T12:55:19.830Z,6.17
2018-11-05T12:57:48.854Z,6.20
2018-11-05T13:00:19.492Z,6.30
2018-11-05T13:02:53.511Z,5.73
2018-11-05T13:05:22.526Z,6.27
2018-11-05T13:07:51.308Z,6.00
2018-11-05T13:10:20.007Z,7.23
2018-11-05T13:12:48.572Z,6.17
2018-11-05T13:15:17.347Z,6.73
2018-11-05T13:17:46.101Z,9.50
2018-11-05T13:20:18.902Z,6.73
2018-11-05T13:22:47.937Z,7.70
2018-11-05T13:25:16.631Z,7.37
2018-11-05T13:27:47.282Z,7.07
2018-11-05T13:30:16.426Z,5.77
2018-11-05T13:32:45.553Z,5.20
2018-11-05T13:35:16.802Z,5.40
2018-11-05T13:37:46.194Z,5.50
2018-11-05T13:40:22.206Z,6.83
2018-11-05T13:42:51.233Z,6.07
2018-11-05T13:45:20.632Z,5.50
2018-11-05T13:47:50.961Z,4.77
2018-11-05T13:50:19.310Z,4.83
2018-11-05T13:52:47.973Z,5.30
2018-11-05T13:55:17.498Z,4.90
2018-11-05T13:57:47.384Z,5.53
2018-11-05T14:00:17.830Z,5.27
2018-11-05T14:02:46.782Z,5.80
2018-11-05T14:05:15.574Z,5.93
2018-11-05T14:07:44.467Z,6.20
2018-11-05T14:10:15.082Z,6.43
2018-11-05T14:12:44.659Z,6.33
2018-11-05T14:15:13.337Z,5.77
2018-11-05T14:17:42.907Z,6.80
2018-11-05T14:20:12.659Z,7.90
2018-11-05T14:22:41.738Z,6.87
2018-11-05T14:25:13.375Z,6.13
2018-11-05T14:27:43.072Z,6.70
2018-11-05T14:30:12.991Z,6.60
2018-11-05T14:32:42.916Z,6.07
2018-11-05T14:35:11.651Z,5.90
2018-11-05T14:37:40.663Z,5.53
2018-11-05T14:40:11.296Z,6.17
2018-11-05T14:42:40.128Z,6.17
2018-11-05T14:45:11.154Z,6.13
2018-11-05T14:47:41.496Z,5.97
2018-11-05T14:50:12.327Z,6.40
2018-11-05T14:52:41.199Z,6.60
2018-11-05T14:55:12.716Z,6.60
2018-11-05T14:57:42.228Z,7.33
2018-11-05T15:00:14.327Z,7.73
2018-11-05T15:02:43.649Z,9.53
2018-11-05T15:05:13.227Z,9.57
2018-11-05T15:07:42.612Z,9.10
2018-11-05T15:10:15.896Z,6.30
2018-11-05T15:12:44.727Z,6.00
2018-11-05T15:15:14.279Z,6.20
2018-11-05T15:17:43.555Z,6.50
2018-11-05T15:20:15.797Z,6.20
2018-11-05T15:22:45.140Z,6.50
2018-11-05T15:25:14.777Z,6.20
2018-11-05T15:27:43.487Z,5.70
2018-11-05T15:30:16.419Z,5.80
2018-11-05T15:32:45.541Z,5.47
2018-11-05T15:35:14.614Z,5.20
2018-11-05T15:37:43.481Z,4.83
2018-11-05T15:40:14.298Z,5.07
2018-11-05T15:42:43.093Z,4.27
2018-11-05T15:45:13.725Z,4.50
2018-11-05T15:47:42.849Z,4.77
2018-11-05T15:50:14.023Z,4.93
2018-11-05T15:52:43.183Z,4.33
2018-11-05T15:55:11.897Z,4.67
2018-11-05T15:57:40.974Z,4.63
2018-11-05T16:00:19.925Z,4.70
2018-11-05T16:02:50.857Z,5.00
2018-11-05T16:05:19.549Z,4.67
2018-11-05T16:07:48.319Z,3.93
2018-11-05T16:10:17.010Z,4.33
2018-11-05T16:12:46.623Z,4.40
2018-11-05T16:15:16.201Z,4.53
2018-11-05T16:17:45.090Z,4.20
2018-11-05T16:20:15.409Z,4.33
2018-11-05T16:22:44.457Z,4.63
2018-11-05T16:25:13.363Z,4.63
2018-11-05T16:27:43.038Z,4.87
2018-11-05T16:30:14.105Z,4.17
2018-11-05T16:32:43.437Z,4.20
2018-11-05T16:35:12.677Z,4.10
2018-11-05T16:37:41.229Z,4.67
2018-11-05T16:40:13.255Z,5.50
2018-11-05T16:42:42.040Z,4.50
2018-11-05T16:45:11.294Z,5.27
2018-11-05T16:47:40.752Z,5.07
2018-11-05T16:50:17.238Z,4.97
2018-11-05T16:52:46.939Z,4.53
2018-11-05T16:55:15.740Z,4.60
2018-11-05T16:57:45.299Z,4.17
2018-11-05T17:00:14.756Z,4.33
2018-11-05T17:02:44.157Z,4.90
2018-11-05T17:05:12.774Z,4.53
2018-11-05T17:07:41.814Z,5.07
2018-11-05T17:10:11.773Z,5.00
2018-11-05T17:12:40.777Z,4.83
2018-11-05T17:15:11.309Z,4.60
2018-11-05T17:17:40.578Z,4.63
2018-11-05T17:20:11.217Z,5.80
2018-11-05T17:22:40.215Z,4.80
2018-11-05T17:25:09.639Z,5.03
2018-11-05T17:27:38.410Z,4.90
2018-11-05T17:30:10.279Z,4.57
2018-11-05T17:32:39.702Z,5.57
2018-11-05T17:35:08.680Z,5.10
2018-11-05T17:37:37.303Z,5.30
2018-11-05T17:40:07.974Z,5.30
2018-11-05T17:42:36.845Z,5.13
2018-11-05T17:45:06.979Z,5.13
2018-11-05T17:47:35.682Z,4.87
2018-11-05T17:50:06.263Z,5.33
2018-11-05T17:52:35.324Z,4.77
2018-11-05T17:55:04.208Z,5.00
2018-11-05T17:57:32.995Z,4.60
2018-11-05T18:00:01.843Z,4.70
2018-11-05T18:02:30.898Z,5.27
2018-11-05T18:05:00.004Z,5.17
2018-11-05T18:07:28.963Z,4.67
2018-11-05T18:09:57.675Z,4.93
2018-11-05T18:12:26.786Z,4.60
2018-11-05T18:14:55.483Z,4.77
2018-11-05T18:17:24.285Z,4.57
2018-11-05T18:19:53.489Z,5.17
2018-11-05T18:22:22.296Z,5.30
2018-11-05T18:24:52.061Z,4.93
2018-11-05T18:27:21.004Z,4.90
2018-11-05T18:29:49.918Z,4.90
2018-11-05T18:32:20.276Z,5.57
2018-11-05T18:34:51.184Z,4.77
2018-11-05T18:37:19.963Z,5.00
2018-11-05T18:39:49.037Z,5.07
2018-11-05T18:42:18.023Z,4.33
2018-11-05T18:44:47.773Z,4.73
2018-11-05T18:47:16.904Z,4.53
2018-11-05T18:49:46.875Z,5.03
2018-11-05T18:52:15.269Z,5.50
2018-11-05T18:54:43.994Z,5.17
2018-11-05T18:57:13.278Z,5.50
2018-11-05T18:59:42.075Z,4.70
2018-11-05T19:02:15.286Z,5.30
2018-11-05T19:04:44.080Z,5.30
2018-11-05T19:07:12.903Z,5.07
2018-11-05T19:09:41.852Z,5.50
2018-11-05T19:12:10.760Z,5.33
2018-11-05T19:14:39.720Z,5.00
2018-11-05T19:17:08.664Z,5.87
2018-11-05T19:19:37.730Z,6.23
2018-11-05T19:22:06.959Z,5.90
2018-11-05T19:24:36.339Z,5.77
2018-11-05T19:27:05.612Z,6.00
2018-11-05T19:29:34.561Z,5.63
2018-11-05T19:32:03.534Z,5.70
2018-11-05T19:34:32.587Z,5.20
2018-11-05T19:37:01.608Z,5.10
2018-11-05T19:39:30.548Z,5.23
2018-11-05T19:42:00.128Z,4.57
2018-11-05T19:44:29.083Z,4.83
2018-11-05T19:46:57.997Z,5.30
2018-11-05T19:49:26.785Z,5.13
2018-11-05T19:51:56.871Z,5.33
2018-11-05T19:54:26.328Z,5.10
2018-11-05T19:56:56.170Z,5.27
2018-11-05T19:59:25.591Z,5.40
2018-11-05T20:01:54.609Z,5.33
2018-11-05T20:04:23.340Z,5.43
2018-11-05T20:06:52.023Z,6.37
2018-11-05T20:09:21.216Z,4.93
2018-11-05T20:11:49.930Z,5.30
2018-11-05T20:14:18.849Z,4.93
2018-11-05T20:16:47.919Z,5.80
2018-11-05T20:19:17.312Z,5.30
2018-11-05T20:21:46.110Z,4.80
2018-11-05T20:24:15.152Z,4.30
2018-11-05T20:26:43.842Z,5.20
2018-11-05T20:29:12.768Z,5.40
2018-11-05T20:31:41.908Z,5.23
2018-11-05T20:34:10.712Z,4.60
2018-11-05T20:36:40.395Z,4.70
2018-11-05T20:39:10.484Z,4.90
2018-11-05T20:41:39.200Z,4.97
2018-11-05T20:44:07.927Z,4.83
2018-11-05T20:46:38.149Z,5.07
2018-11-05T20:49:06.990Z,5.10
2018-11-05T20:51:35.861Z,5.13
2018-11-05T20:54:05.343Z,4.97
2018-11-05T20:56:34.341Z,5.20
2018-11-05T20:59:03.280Z,5.10
2018-11-05T21:01:32.058Z,5.60
2018-11-05T21:04:00.907Z,5.30
2018-11-05T21:06:29.656Z,4.97
2018-11-05T21:08:58.341Z,5.20
2018-11-05T21:11:27.225Z,5.53
2018-11-05T21:13:55.989Z,5.00
2018-11-05T21:16:25.125Z,5.37
2018-11-05T21:18:54.768Z,5.93
2018-11-05T21:21:23.568Z,6.10
2018-11-05T21:23:53.433Z,5.13
2018-11-05T21:26:22.015Z,4.90
2018-11-05T21:28:50.847Z,4.93
2018-11-05T21:31:19.633Z,5.17
2018-11-05T21:33:48.457Z,5.17
2018-11-05T21:36:17.213Z,5.40
2018-11-05T21:38:46.073Z,5.97
2018-11-05T21:41:14.886Z,5.50
2018-11-05T21:43:43.623Z,6.03
2018-11-05T21:46:13.052Z,6.87
2018-11-05T21:48:41.582Z,6.77
2018-11-05T21:51:10.443Z,6.43
2018-11-05T21:53:39.431Z,7.40
2018-11-05T21:56:08.129Z,7.10
2018-11-05T21:58:36.969Z,7.77
2018-11-05T22:01:05.989Z,8.43
2018-11-05T22:03:35.797Z,7.97
2018-11-05T22:06:05.121Z,8.27
2018-11-05T22:08:33.844Z,7.03
2018-11-05T22:11:02.384Z,7.67
2018-11-05T22:13:31.455Z,9.07
2018-11-05T22:16:00.722Z,7.73
2018-11-05T22:18:29.332Z,8.80
2018-11-05T22:20:58.445Z,9.83
2018-11-05T22:23:27.136Z,9.60
2018-11-05T22:25:55.781Z,10.27
2018-11-05T22:28:24.690Z,10.00
2018-11-05T22:30:53.236Z,10.17
2018-11-05T22:33:22.405Z,10.13
2018-11-05T22:35:51.106Z,11.40
2018-11-05T22:38:20.028Z,10.77
2018-11-05T22:40:49.114Z,10.57
2018-11-05T22:43:17.726Z,10.67
2018-11-05T22:45:46.600Z,10.37
2018-11-05T22:48:16.093Z,10.17
2018-11-05T22:50:44.828Z,15.57
2018-11-05T22:53:13.347Z,18.13
2018-11-05T22:55:41.911Z,17.57
2018-11-05T22:58:10.742Z,18.13
2018-11-05T23:00:44.817Z,20.50
2018-11-05T23:03:18.627Z,21.83
2018-11-05T23:05:47.512Z,18.20
2018-11-05T23:08:16.414Z,18.13
2018-11-05T23:10:45.113Z,13.33
2018-11-05T23:13:13.840Z,13.13
2018-11-05T23:15:42.469Z,13.80
2018-11-05T23:18:11.130Z,15.77
2018-11-05T23:20:39.671Z,16.53
2018-11-05T23:23:08.924Z,15.47
2018-11-05T23:25:37.587Z,14.23
2018-11-05T23:28:06.399Z,13.40
2018-11-05T23:30:35.056Z,13.57
2018-11-05T23:33:03.772Z,15.27
2018-11-05T23:35:32.382Z,13.83
2018-11-05T23:38:01.033Z,12.97
2018-11-05T23:40:29.637Z,12.83
2018-11-05T23:42:58.373Z,14.97
2018-11-05T23:45:26.924Z,14.87
2018-11-05T23:47:55.551Z,15.30
2018-11-05T23:50:24.320Z,14.63
2018-11-05T23:52:53.216Z,14.87
2018-11-05T23:55:21.854Z,11.73
2018-11-05T23:57:50.437Z,10.73
